createdAt,value
2023-01-03T00:00:43.817Z,24.03
2023-01-03T00:03:17.196Z,24.10
2023-01-03T00:05:46.667Z,24.87
2023-01-03T00:08:15.734Z,23.40
2023-01-03T00:10:45.155Z,23.97
2023-01-03T00:13:13.494Z,23.50
2023-01-03T00:15:42.002Z,24.17
2023-01-03T00:18:10.647Z,25.70
2023-01-03T00:20:39.638Z,24.17
2023-01-03T00:23:08.556Z,24.83
2023-01-03T00:25:37.643Z,24.57
2023-01-03T00:28:06.851Z,24.03
2023-01-03T00:30:35.124Z,24.53
2023-01-03T00:33:04.585Z,24.07
2023-01-03T00:35:33.769Z,22.53
2023-01-03T00:38:02.341Z,24.03
2023-01-03T00:40:31.620Z,24.00
2023-01-03T00:43:17.945Z,24.37
2023-01-03T00:45:46.900Z,22.83
2023-01-03T00:48:15.391Z,24.53
2023-01-03T00:50:44.690Z,25.57
2023-01-03T00:53:13.548Z,23.67
2023-01-03T00:55:42.538Z,26.77
2023-01-03T00:58:11.429Z,25.47
2023-01-03T01:00:40.299Z,24.73
2023-01-03T01:03:09.248Z,24.70
2023-01-03T01:05:37.933Z,23.80
2023-01-03T01:08:06.896Z,23.37
2023-01-03T01:10:35.134Z,23.43
2023-01-03T01:13:04.045Z,23.00
2023-01-03T01:15:33.054Z,22.03
2023-01-03T01:18:01.713Z,21.53
2023-01-03T01:20:30.634Z,20.70
2023-01-03T01:22:59.117Z,23.53
2023-01-03T01:25:28.118Z,21.57
2023-01-03T01:27:56.901Z,21.83
2023-01-03T01:30:25.599Z,21.93
2023-01-03T01:32:54.754Z,20.73
2023-01-03T02:09:53.620Z,20.00
2023-01-03T02:13:02.084Z,19.93
2023-01-03T02:15:57.320Z,18.73
2023-01-03T02:18:40.790Z,18.40
2023-01-03T02:21:43.230Z,19.03
2023-01-03T02:24:16.303Z,18.03
2023-01-03T02:26:54.963Z,18.90
2023-01-03T02:29:25.769Z,19.30
2023-01-03T02:32:27.700Z,20.13
2023-01-03T02:35:13.647Z,18.07
2023-01-03T02:38:08.641Z,19.33
2023-01-03T02:40:37.152Z,18.07
2023-01-03T02:43:08.652Z,21.23
2023-01-03T02:46:04.920Z,22.23
2023-01-03T02:48:40.721Z,22.07
2023-01-03T03:16:07.555Z,22.07
2023-01-03T03:27:11.433Z,22.77
2023-01-03T03:29:40.740Z,22.80
2023-01-03T03:32:09.234Z,22.73
2023-01-03T03:34:38.432Z,24.40
2023-01-03T03:37:15.861Z,23.97
2023-01-03T03:40:02.730Z,21.50
2023-01-03T03:43:29.916Z,21.23
2023-01-03T03:46:09.631Z,21.20
2023-01-03T03:49:30.688Z,22.37
2023-01-03T03:51:58.922Z,19.53
2023-01-03T03:54:26.853Z,22.07
2023-01-03T03:56:58.860Z,21.17
2023-01-03T03:59:27.651Z,19.83
2023-01-03T04:01:57.469Z,21.97
2023-01-03T04:04:29.155Z,19.87
2023-01-03T04:06:57.933Z,18.97
2023-01-03T04:09:26.003Z,18.90
2023-01-03T04:11:54.745Z,16.90
2023-01-03T04:14:24.037Z,17.40
2023-01-03T04:16:52.421Z,17.60
2023-01-03T04:19:21.269Z,17.43
2023-01-03T04:21:49.848Z,18.10
2023-01-03T04:24:20.391Z,17.43
2023-01-03T04:26:49.462Z,17.30
2023-01-03T04:29:18.352Z,17.93
2023-01-03T04:31:46.249Z,17.03
2023-01-03T04:34:14.887Z,16.60
2023-01-03T04:36:44.258Z,15.50
2023-01-03T04:39:12.369Z,16.70
2023-01-03T04:41:40.873Z,16.53
2023-01-03T04:44:10.306Z,16.53
2023-01-03T04:52:18.624Z,17.97
2023-01-03T04:54:46.784Z,18.03
2023-01-03T04:57:15.001Z,19.60
2023-01-03T04:59:43.718Z,19.63
2023-01-03T05:02:12.407Z,18.83
2023-01-03T05:04:44.301Z,18.83
2023-01-03T05:07:12.860Z,19.73
2023-01-03T05:09:41.804Z,19.27
2023-01-03T05:12:21.263Z,20.13
2023-01-03T05:14:49.806Z,20.37
2023-01-03T05:17:20.535Z,20.30
2023-01-03T05:20:06.817Z,19.23
2023-01-03T05:22:53.710Z,19.03
2023-01-03T05:25:40.808Z,18.52
2023-01-03T05:28:13.794Z,18.50
2023-01-03T05:30:48.743Z,18.83
2023-01-03T05:33:17.549Z,17.57
2023-01-03T05:35:48.889Z,18.93
2023-01-03T05:38:17.728Z,18.77
2023-01-03T05:40:45.715Z,18.67
2023-01-03T05:43:14.307Z,18.17
2023-01-03T05:45:43.576Z,17.90
2023-01-03T05:48:13.124Z,19.73
2023-01-03T05:50:42.288Z,18.90
2023-01-03T05:53:11.043Z,17.60
2023-01-03T05:55:39.275Z,18.73
2023-01-03T05:58:09.143Z,17.60
2023-01-03T06:00:37.502Z,18.90
2023-01-03T06:03:06.534Z,19.07
2023-01-03T06:05:38.437Z,19.27
2023-01-03T06:08:07.653Z,19.73
2023-01-03T06:10:36.895Z,19.63
2023-01-03T06:13:05.811Z,19.67
2023-01-03T06:18:15.361Z,18.37
2023-01-03T06:29:25.534Z,18.20
2023-01-03T06:31:54.544Z,17.23
2023-01-03T06:34:23.502Z,17.93
2023-01-03T06:36:51.746Z,17.30
2023-01-03T06:39:20.993Z,18.73
2023-01-03T06:41:49.115Z,18.50
2023-01-03T06:44:18.168Z,17.00
2023-01-03T06:47:04.538Z,17.73
2023-01-03T07:45:45.363Z,22.77
2023-01-03T07:48:14.210Z,20.60
2023-01-03T07:50:42.317Z,22.43
2023-01-03T07:53:16.635Z,19.77
2023-01-03T08:25:57.479Z,24.10
2023-01-03T08:50:53.476Z,24.20
2023-01-03T08:59:31.917Z,23.47
2023-01-03T09:04:41.566Z,22.13
2023-01-03T09:07:10.343Z,21.53
2023-01-03T09:09:39.167Z,23.80
2023-01-03T09:12:07.981Z,22.33
2023-01-03T09:14:36.445Z,21.13
2023-01-03T09:17:04.571Z,21.50
2023-01-03T09:19:36.912Z,21.67
2023-01-03T09:22:05.007Z,21.20
2023-01-03T09:24:32.516Z,20.47
2023-01-03T09:27:00.700Z,18.80
2023-01-03T09:29:28.717Z,20.97
2023-01-03T09:31:56.500Z,19.70
2023-01-03T09:34:25.026Z,19.60
2023-01-03T09:36:53.229Z,19.73
2023-01-03T09:39:21.698Z,19.47
2023-01-03T09:42:09.559Z,18.67
2023-01-03T09:44:37.483Z,17.43
2023-01-03T09:47:05.733Z,18.10
2023-01-03T09:50:04.531Z,20.13
2023-01-03T09:52:47.945Z,18.47
2023-01-03T09:55:56.719Z,19.83
2023-01-03T09:58:48.965Z,18.63
2023-01-03T10:01:57.812Z,18.83
2023-01-03T10:04:33.780Z,17.53
2023-01-03T10:07:25.700Z,20.13
2023-01-03T10:09:57.938Z,19.20
2023-01-03T10:12:43.522Z,19.70
2023-01-03T10:15:13.256Z,19.13
2023-01-03T10:18:02.790Z,19.63
2023-01-03T10:20:46.837Z,19.90
2023-01-03T10:23:14.348Z,19.13
2023-01-03T10:25:43.218Z,19.37
2023-01-03T10:28:26.613Z,18.33
2023-01-03T10:31:09.161Z,18.47
2023-01-03T10:33:45.652Z,20.10
2023-01-03T10:36:13.681Z,19.02
2023-01-03T10:38:47.847Z,19.40
2023-01-03T10:41:24.024Z,20.10
2023-01-03T10:44:02.559Z,19.47
2023-01-03T10:46:30.941Z,19.27
2023-01-03T10:49:38.527Z,18.97
2023-01-03T10:52:18.436Z,18.93
2023-01-03T10:54:56.787Z,17.53
2023-01-03T10:57:48.462Z,18.40
2023-01-03T11:00:21.687Z,16.43
2023-01-03T11:03:21.479Z,18.23
2023-01-03T11:05:58.561Z,16.10
2023-01-03T11:08:40.598Z,16.47
2023-01-03T11:11:09.833Z,17.80
2023-01-03T11:13:39.745Z,18.03
2023-01-03T11:16:18.717Z,17.53
2023-01-03T11:19:01.458Z,18.47
2023-01-03T11:21:41.385Z,16.77
2023-01-03T11:25:00.406Z,17.00
2023-01-03T11:30:23.374Z,17.70
2023-01-03T11:33:46.401Z,17.67
2023-01-03T11:36:31.408Z,16.00
2023-01-03T11:39:36.381Z,16.33
2023-01-03T11:42:13.407Z,17.23
2023-01-03T11:44:41.039Z,18.20
2023-01-03T11:47:40.386Z,17.87
2023-01-03T11:50:16.852Z,17.13
2023-01-03T11:55:49.527Z,18.57
2023-01-03T11:58:43.198Z,18.27
2023-01-03T12:01:38.792Z,16.90
2023-01-03T12:04:08.969Z,16.97
2023-01-03T12:07:36.930Z,17.17
2023-01-03T12:10:15.727Z,16.13
2023-01-03T12:13:10.261Z,16.33
2023-01-03T12:15:56.296Z,16.87
2023-01-03T12:18:30.173Z,16.23
2023-01-03T12:21:17.184Z,16.73
2023-01-03T12:24:01.526Z,16.33
2023-01-03T12:26:30.646Z,16.20
2023-01-03T12:29:13.887Z,17.50
2023-01-03T12:31:49.832Z,16.20
2023-01-03T12:34:22.733Z,11.85
2023-01-03T12:37:20.012Z,16.67
2023-01-03T12:40:05.819Z,16.37
2023-01-03T12:42:46.991Z,14.90
2023-01-03T12:45:34.297Z,16.13
2023-01-03T12:48:34.359Z,16.17
2023-01-03T12:51:02.037Z,15.27
2023-01-03T12:53:48.202Z,15.97
2023-01-03T12:56:39.344Z,15.90
2023-01-03T12:59:30.656Z,16.03
2023-01-03T13:02:00.885Z,15.83
2023-01-03T13:04:36.267Z,17.10
2023-01-03T13:07:05.224Z,15.13
2023-01-03T13:09:37.070Z,16.20
2023-01-03T13:12:08.873Z,15.53
2023-01-03T13:14:55.425Z,17.03
2023-01-03T13:17:29.276Z,15.25
2023-01-03T13:20:27.358Z,16.10
2023-01-03T13:22:54.887Z,14.95
2023-01-03T13:25:32.794Z,16.67
2023-01-03T13:28:02.304Z,16.20
2023-01-03T13:30:32.230Z,15.67
2023-01-03T13:33:07.218Z,16.77
2023-01-03T13:35:36.030Z,16.87
2023-01-03T13:38:37.717Z,17.63
2023-01-03T13:41:18.191Z,17.57
2023-01-03T13:43:50.412Z,17.40
2023-01-03T13:46:27.748Z,16.87
2023-01-03T13:49:09.115Z,17.43
2023-01-03T13:51:39.074Z,17.10
2023-01-03T13:54:23.480Z,17.07
2023-01-03T13:56:59.037Z,17.50
2023-01-03T13:59:34.111Z,17.73
2023-01-03T14:02:08.015Z,16.63
2023-01-03T14:05:03.168Z,16.57
2023-01-03T14:07:52.147Z,17.37
2023-01-03T14:10:38.506Z,17.27
2023-01-03T14:13:34.686Z,15.73
2023-01-03T14:16:13.914Z,16.07
2023-01-03T14:18:42.180Z,16.47
2023-01-03T14:21:15.649Z,16.83
2023-01-03T14:23:59.625Z,14.75
2023-01-03T14:26:27.622Z,15.60
2023-01-03T14:28:55.373Z,15.83
2023-01-03T14:31:51.416Z,15.77
2023-01-03T14:34:26.097Z,14.90
2023-01-03T14:36:54.142Z,17.47
2023-01-03T14:42:00.241Z,16.73
2023-01-03T14:44:29.291Z,17.00
2023-01-03T14:46:57.925Z,17.43
2023-01-03T14:49:24.451Z,17.00
2023-01-03T14:51:51.936Z,17.17
2023-01-03T14:54:20.455Z,16.23
2023-01-03T14:56:51.410Z,16.10
2023-01-03T14:59:19.910Z,15.97
2023-01-03T15:01:46.757Z,15.97
2023-01-03T15:04:15.421Z,16.70
2023-01-03T15:07:04.816Z,16.83
2023-01-03T15:09:37.028Z,16.70
2023-01-03T15:12:05.688Z,17.07
2023-01-03T15:14:34.623Z,17.37
2023-01-03T15:17:33.251Z,17.87
2023-01-03T15:20:01.489Z,17.00
2023-01-03T15:22:34.979Z,16.67
2023-01-03T15:25:06.589Z,16.80
2023-01-03T15:27:39.704Z,16.73
2023-01-03T15:30:26.362Z,17.27
2023-01-03T15:33:20.370Z,16.98
2023-01-03T15:35:48.012Z,17.17
2023-01-03T15:38:20.446Z,16.20
2023-01-03T15:40:49.245Z,15.30
2023-01-03T15:43:20.053Z,17.47
2023-01-03T15:45:57.288Z,17.37
2023-01-03T15:48:26.158Z,16.97
2023-01-03T15:50:55.911Z,17.27
2023-01-03T15:53:40.955Z,16.97
2023-01-03T15:56:18.246Z,18.03
2023-01-03T15:58:48.154Z,16.77
2023-01-03T16:01:16.574Z,18.33
2023-01-03T16:03:45.486Z,17.60
2023-01-03T16:06:14.100Z,16.97
2023-01-03T16:08:42.660Z,17.03
2023-01-03T16:11:19.411Z,17.00
2023-01-03T16:13:50.277Z,16.00
2023-01-03T16:16:26.625Z,15.80
2023-01-03T16:18:54.179Z,16.80
2023-01-03T16:21:21.973Z,17.27
2023-01-03T16:23:52.433Z,17.93
2023-01-03T16:26:20.333Z,17.67
2023-01-03T16:28:49.108Z,18.13
2023-01-03T16:31:18.743Z,17.07
2023-01-03T16:33:50.400Z,16.70
2023-01-03T16:36:35.426Z,17.67
2023-01-03T16:39:04.015Z,17.73
2023-01-03T16:41:32.369Z,18.80
2023-01-03T16:44:00.881Z,17.67
2023-01-03T16:46:29.389Z,17.70
2023-01-03T16:48:59.003Z,18.43
2023-01-03T16:51:31.586Z,18.27
2023-01-03T16:53:59.440Z,18.57
2023-01-03T16:56:27.862Z,16.63
2023-01-03T16:58:55.626Z,18.83
2023-01-03T17:01:24.675Z,18.20
2023-01-03T17:03:53.459Z,17.80
2023-01-03T17:06:25.483Z,17.77
2023-01-03T17:08:53.726Z,18.50
2023-01-03T17:11:25.217Z,19.07
2023-01-03T17:14:00.410Z,20.77
2023-01-03T17:16:29.241Z,19.93
2023-01-03T17:18:57.996Z,19.37
2023-01-03T17:21:25.553Z,19.23
2023-01-03T17:24:06.588Z,20.43
2023-01-03T17:26:39.053Z,20.10
2023-01-03T17:29:06.997Z,20.17
2023-01-03T17:31:34.749Z,19.00
2023-01-03T17:34:03.405Z,19.73
2023-01-03T17:36:32.471Z,21.00
2023-01-03T17:39:03.013Z,21.23
2023-01-03T17:41:30.815Z,20.40
2023-01-03T17:43:58.784Z,20.10
2023-01-03T17:46:45.234Z,21.90
2023-01-03T17:49:25.522Z,20.47
2023-01-03T17:51:57.344Z,20.17
2023-01-03T17:54:30.572Z,23.93
2023-01-03T17:56:58.608Z,27.10
2023-01-03T17:59:26.965Z,27.30
2023-01-03T18:01:54.815Z,30.27
2023-01-03T18:04:23.440Z,22.53
2023-01-03T18:06:56.325Z,20.50
2023-01-03T18:09:23.448Z,21.57
2023-01-03T18:11:51.369Z,20.70
2023-01-03T18:14:19.108Z,20.80
2023-01-03T18:16:53.148Z,21.00
2023-01-03T18:19:23.012Z,21.70
2023-01-03T18:21:50.505Z,20.43
2023-01-03T18:24:22.045Z,20.30
2023-01-03T18:26:53.180Z,21.70
2023-01-03T18:29:21.256Z,22.10
2023-01-03T18:31:49.403Z,21.53
2023-01-03T18:34:17.740Z,22.33
2023-01-03T18:36:49.742Z,21.93
2023-01-03T18:39:19.758Z,21.70
2023-01-03T18:41:47.794Z,20.67
2023-01-03T18:44:23.176Z,22.33
2023-01-03T18:47:11.437Z,22.57
2023-01-03T18:49:39.587Z,21.17
2023-01-03T18:52:07.108Z,22.47
2023-01-03T18:54:36.403Z,23.30
2023-01-03T18:57:03.443Z,22.90
2023-01-03T18:59:32.088Z,23.67
2023-01-03T19:01:59.887Z,23.53
2023-01-03T19:04:30.810Z,25.10
2023-01-03T19:06:59.135Z,22.83
2023-01-03T19:09:26.413Z,22.10
2023-01-03T19:11:53.819Z,22.03
2023-01-03T19:14:21.301Z,22.27
2023-01-03T19:16:48.962Z,21.77
2023-01-03T19:19:16.470Z,22.03
2023-01-03T19:21:45.932Z,22.73
2023-01-03T19:24:39.445Z,22.77
2023-01-03T19:27:27.039Z,21.43
2023-01-03T19:30:25.047Z,22.13
2023-01-03T19:33:13.341Z,20.80
2023-01-03T19:35:41.041Z,20.83
2023-01-03T19:38:09.920Z,20.53
2023-01-03T19:40:38.348Z,21.77
2023-01-03T19:43:05.763Z,20.57
2023-01-03T19:45:37.148Z,21.93
2023-01-03T19:48:10.038Z,21.77
2023-01-03T19:50:37.967Z,22.33
2023-01-03T19:53:06.369Z,21.87
2023-01-03T19:55:34.788Z,22.67
2023-01-03T19:58:06.354Z,22.77
2023-01-03T20:00:33.614Z,21.23
2023-01-03T20:03:05.969Z,23.00
2023-01-03T20:05:38.152Z,21.70
2023-01-03T20:08:11.777Z,22.80
2023-01-03T20:10:41.037Z,21.80
2023-01-03T20:13:12.002Z,23.57
2023-01-03T20:15:43.085Z,23.17
2023-01-03T20:18:31.549Z,22.43
2023-01-03T20:21:05.695Z,22.77
2023-01-03T20:23:35.242Z,23.70
2023-01-03T20:26:04.561Z,22.67
2023-01-03T20:28:35.598Z,23.80
2023-01-03T20:31:03.671Z,23.80
2023-01-03T20:33:31.720Z,22.70
2023-01-03T20:36:18.084Z,22.47
2023-01-03T20:38:50.733Z,23.23
2023-01-03T20:41:18.901Z,22.47
2023-01-03T20:43:45.716Z,23.13
2023-01-03T20:46:50.994Z,21.17
2023-01-03T20:49:20.419Z,21.67
2023-01-03T20:51:48.559Z,22.47
2023-01-03T20:54:16.629Z,23.03
2023-01-03T20:56:44.292Z,22.53
2023-01-03T20:59:19.067Z,23.53
2023-01-03T21:17:58.237Z,23.03
2023-01-03T21:20:30.435Z,24.03
2023-01-03T21:22:58.569Z,24.07
2023-01-03T21:33:32.577Z,23.13
2023-01-03T21:36:00.730Z,22.60
2023-01-03T21:38:28.676Z,19.60
2023-01-03T21:40:57.393Z,20.90
2023-01-03T21:43:25.888Z,21.73
2023-01-03T21:45:56.480Z,19.27
2023-01-03T21:48:24.601Z,20.63
2023-01-03T21:50:52.243Z,20.93
2023-01-03T21:53:23.274Z,19.63
2023-01-03T21:55:51.830Z,17.83
2023-01-03T21:58:19.390Z,18.67
2023-01-03T22:00:48.469Z,17.77
2023-01-03T22:03:35.271Z,18.37
2023-01-03T22:06:12.134Z,17.45
2023-01-03T22:08:41.989Z,19.40
2023-01-03T22:11:10.854Z,18.87
2023-01-03T22:13:38.611Z,21.30
2023-01-03T22:16:08.807Z,23.23
2023-01-03T22:18:36.565Z,22.87
2023-01-03T22:21:07.067Z,21.70
2023-01-03T22:23:35.368Z,21.87
2023-01-03T22:26:32.337Z,21.17
2023-01-03T22:29:02.546Z,19.10
2023-01-03T22:31:30.608Z,19.13
2023-01-03T22:33:59.453Z,20.50
2023-01-03T22:36:27.934Z,21.10
2023-01-03T22:38:56.042Z,19.53
2023-01-03T22:41:23.954Z,21.17
2023-01-03T22:43:53.124Z,21.10
2023-01-03T22:46:21.315Z,20.97
2023-01-03T22:48:49.279Z,18.60
2023-01-03T22:51:16.867Z,20.97
2023-01-03T22:53:45.405Z,22.30
2023-01-03T22:56:15.278Z,22.00
2023-01-03T22:58:43.403Z,22.50
2023-01-03T23:01:13.001Z,22.83
2023-01-03T23:03:41.058Z,23.03
2023-01-03T23:06:09.647Z,21.40
2023-01-03T23:08:36.719Z,20.67
2023-01-03T23:11:33.944Z,21.77
2023-01-03T23:14:02.720Z,20.50
2023-01-03T23:16:31.225Z,21.47
2023-01-03T23:18:59.323Z,20.50
2023-01-03T23:21:27.219Z,20.77
2023-01-03T23:23:54.282Z,20.47
2023-01-03T23:26:22.178Z,20.17
2023-01-03T23:28:50.191Z,21.00
2023-01-03T23:31:18.201Z,21.20
2023-01-03T23:33:45.883Z,21.50
2023-01-03T23:36:13.540Z,22.50
2023-01-03T23:38:41.497Z,21.10
2023-01-03T23:41:12.772Z,20.77
2023-01-03T23:43:40.661Z,21.93
2023-01-03T23:46:08.525Z,20.97
2023-01-03T23:48:36.381Z,21.10
2023-01-03T23:51:07.485Z,21.80
2023-01-03T23:53:41.569Z,22.03
2023-01-03T23:56:37.907Z,21.27
2023-01-03T23:59:05.622Z,21.10
